createdAt,value
2017-11-05T00:00:26.619Z,0
2017-11-05T00:01:26.611Z,0
2017-11-05T00:02:26.620Z,0
2017-11-05T00:03:26.569Z,0
2017-11-05T00:04:26.530Z,0
2017-11-05T00:05:26.510Z,0
2017-11-05T00:06:26.486Z,0
2017-11-05T00:07:26.463Z,0
2017-11-05T00:08:26.443Z,0
2017-11-05T00:09:26.410Z,0
2017-11-05T00:10:26.394Z,0
2017-11-05T00:11:26.372Z,0
2017-11-05T00:12:26.698Z,0
2017-11-05T00:13:26.323Z,0
2017-11-05T00:14:26.320Z,0
2017-11-05T00:15:26.280Z,0
2017-11-05T00:16:26.240Z,0
2017-11-05T00:17:26.228Z,0
2017-11-05T00:18:25.895Z,0
2017-11-05T00:19:26.179Z,0
2017-11-05T00:20:26.172Z,0
2017-11-05T00:21:26.144Z,0
2017-11-05T00:22:26.116Z,0
2017-11-05T00:23:26.095Z,0
2017-11-05T00:24:25.744Z,0
2017-11-05T00:25:26.039Z,0
2017-11-05T00:26:26.056Z,0
2017-11-05T00:27:25.676Z,0
2017-11-05T00:28:25.997Z,0
2017-11-05T00:29:25.960Z,0
2017-11-05T00:30:25.937Z,0
2017-11-05T00:31:25.906Z,0
2017-11-05T00:32:25.895Z,0
2017-11-05T00:33:25.861Z,0
2017-11-05T00:34:25.856Z,0
2017-11-05T00:35:25.821Z,0
2017-11-05T00:36:25.800Z,0
2017-11-05T00:37:25.774Z,0
2017-11-05T00:38:25.760Z,0
2017-11-05T00:39:25.736Z,0
2017-11-05T00:40:25.389Z,0
2017-11-05T00:41:25.675Z,0
2017-11-05T00:42:25.657Z,0
2017-11-05T00:43:25.326Z,0
2017-11-05T00:44:25.611Z,0
2017-11-05T00:45:25.262Z,0
2017-11-05T00:46:25.578Z,0
2017-11-05T00:47:25.546Z,0
2017-11-05T00:48:25.244Z,0
2017-11-05T00:49:25.840Z,0
2017-11-05T00:50:25.480Z,0
2017-11-05T00:51:25.492Z,0
2017-11-05T00:52:25.119Z,0
2017-11-05T00:53:25.409Z,0
2017-11-05T00:54:25.390Z,0
2017-11-05T00:55:25.368Z,0
2017-11-05T00:56:24.695Z,0
2017-11-05T00:57:25.308Z,0
2017-11-05T00:58:25.290Z,0
2017-11-05T00:59:24.621Z,0
2017-11-05T01:00:25.245Z,0
2017-11-05T01:01:24.917Z,0
2017-11-05T01:02:25.202Z,0
2017-11-05T01:03:25.177Z,0
2017-11-05T01:04:25.157Z,0
2017-11-05T01:05:25.139Z,0
2017-11-05T01:06:24.787Z,0
2017-11-05T01:07:25.090Z,0
2017-11-05T01:08:24.734Z,0
2017-11-05T01:09:25.040Z,0
2017-11-05T01:10:25.024Z,0
2017-11-05T01:11:24.703Z,0
2017-11-05T01:12:24.965Z,0
2017-11-05T01:13:24.943Z,0
2017-11-05T01:14:24.934Z,0
2017-11-05T01:15:24.909Z,0
2017-11-05T01:16:24.873Z,0
2017-11-05T01:17:24.853Z,0
2017-11-05T01:18:24.836Z,0
2017-11-05T01:19:24.814Z,0
2017-11-05T01:20:24.466Z,0
2017-11-05T01:21:24.783Z,0
2017-11-05T01:22:24.743Z,0
2017-11-05T01:23:24.724Z,0
2017-11-05T01:24:24.699Z,0
2017-11-05T01:25:24.679Z,0
2017-11-05T01:26:24.683Z,0
2017-11-05T01:27:24.634Z,0
2017-11-05T01:28:24.607Z,0
2017-11-05T01:29:24.625Z,0
2017-11-05T01:30:24.652Z,0
2017-11-05T01:31:24.549Z,0
2017-11-05T01:32:24.513Z,0
2017-11-05T01:33:24.500Z,0
2017-11-05T01:34:24.468Z,0
2017-11-05T01:35:24.448Z,0
2017-11-05T01:36:24.421Z,0
2017-11-05T01:37:24.399Z,0
2017-11-05T01:38:24.384Z,0
2017-11-05T01:39:24.357Z,0
2017-11-05T01:40:24.342Z,0
2017-11-05T01:41:24.427Z,0
2017-11-05T01:42:24.293Z,0
2017-11-05T01:43:24.251Z,0
2017-11-05T01:44:24.249Z,0
2017-11-05T01:45:24.230Z,0
2017-11-05T01:46:23.890Z,0
2017-11-05T01:47:23.843Z,0
2017-11-05T01:48:24.151Z,0
2017-11-05T01:49:24.013Z,0
2017-11-05T01:50:23.777Z,0
2017-11-05T01:51:24.088Z,0
2017-11-05T01:52:24.055Z,0
2017-11-05T01:53:24.224Z,0
2017-11-05T01:54:23.693Z,0
2017-11-05T01:55:23.995Z,0
2017-11-05T01:56:23.652Z,0
2017-11-05T01:57:23.944Z,0
2017-11-05T01:58:23.924Z,0
2017-11-05T01:59:23.895Z,0
2017-11-05T02:00:23.869Z,0
2017-11-05T02:01:23.856Z,0
2017-11-05T02:02:23.816Z,0
2017-11-05T02:03:23.799Z,0
2017-11-05T02:04:23.779Z,0
2017-11-05T02:05:23.760Z,0
2017-11-05T02:06:23.743Z,0
2017-11-05T02:07:23.722Z,0
2017-11-05T02:08:23.686Z,0
2017-11-05T02:09:23.671Z,0
2017-11-05T02:10:23.641Z,0
2017-11-05T02:11:23.297Z,0
2017-11-05T02:12:23.610Z,0
2017-11-05T02:13:23.574Z,0
2017-11-05T02:14:23.222Z,0
2017-11-05T02:15:23.532Z,0
2017-11-05T02:16:23.499Z,0
2017-11-05T02:17:23.479Z,0
2017-11-05T02:18:23.471Z,0
2017-11-05T02:19:23.121Z,0
2017-11-05T02:20:23.095Z,0
2017-11-05T02:21:22.747Z,0
2017-11-05T02:22:23.388Z,0
2017-11-05T02:23:23.019Z,0
2017-11-05T02:24:23.320Z,0
2017-11-05T02:25:23.334Z,0
2017-11-05T02:26:23.270Z,0
2017-11-05T02:27:23.249Z,0
2017-11-05T02:28:23.231Z,0
2017-11-05T02:29:22.885Z,0
2017-11-05T02:30:23.181Z,0
2017-11-05T02:31:23.155Z,0
2017-11-05T02:32:23.130Z,0
2017-11-05T02:33:23.115Z,0
2017-11-05T02:34:23.085Z,0
2017-11-05T02:35:22.741Z,0
2017-11-05T02:36:23.047Z,0
2017-11-05T02:37:23.058Z,0
2017-11-05T02:38:22.670Z,0
2017-11-05T02:39:22.984Z,0
2017-11-05T02:40:22.952Z,0
2017-11-05T02:41:22.932Z,0
2017-11-05T02:42:22.905Z,0
2017-11-05T02:43:22.571Z,0
2017-11-05T02:44:22.865Z,0
2017-11-05T02:45:22.859Z,0
2017-11-05T02:46:22.841Z,0
2017-11-05T02:47:22.782Z,0
2017-11-05T02:48:22.450Z,0
2017-11-05T02:49:22.743Z,0
2017-11-05T02:50:22.720Z,0
2017-11-05T02:51:22.729Z,0
2017-11-05T02:52:22.678Z,0
2017-11-05T02:53:22.656Z,0
2017-11-05T02:54:22.617Z,0
2017-11-05T02:55:22.620Z,0
2017-11-05T02:56:22.578Z,0
2017-11-05T02:57:22.235Z,0
2017-11-05T02:58:22.528Z,0
2017-11-05T02:59:22.508Z,0
2017-11-05T03:00:22.490Z,0
2017-11-05T03:01:22.481Z,0
2017-11-05T03:02:22.433Z,0
2017-11-05T03:03:22.409Z,0
2017-11-05T03:04:22.425Z,0
2017-11-05T03:05:22.389Z,0
2017-11-05T03:06:22.341Z,0
2017-11-05T03:07:22.319Z,0
2017-11-05T03:08:22.308Z,0
2017-11-05T03:09:22.285Z,0
2017-11-05T03:10:22.266Z,0
2017-11-05T03:11:21.909Z,0
2017-11-05T03:12:22.226Z,0
2017-11-05T03:13:22.189Z,0
2017-11-05T03:14:22.161Z,0
2017-11-05T03:15:22.136Z,0
2017-11-05T03:16:22.118Z,0
2017-11-05T03:17:22.126Z,0
2017-11-05T03:18:22.064Z,0
2017-11-05T03:19:22.041Z,0
2017-11-05T03:20:22.032Z,0
2017-11-05T03:21:21.990Z,0
2017-11-05T03:22:21.984Z,0
2017-11-05T03:23:21.964Z,0
2017-11-05T03:24:21.929Z,0
2017-11-05T03:25:21.896Z,0
2017-11-05T03:26:21.877Z,0
2017-11-05T03:27:21.533Z,0
2017-11-05T03:28:21.838Z,0
2017-11-05T03:29:21.819Z,0
2017-11-05T03:30:21.803Z,0
2017-11-05T03:31:21.447Z,0
2017-11-05T03:32:21.741Z,0
2017-11-05T03:33:21.084Z,0
2017-11-05T03:34:21.685Z,0
2017-11-05T03:35:21.672Z,0
2017-11-05T03:36:21.014Z,0
2017-11-05T03:37:21.637Z,0
2017-11-05T03:38:21.609Z,0
2017-11-05T03:39:21.575Z,0
2017-11-05T03:40:21.563Z,0
2017-11-05T03:41:21.534Z,0
2017-11-05T03:42:21.183Z,0
2017-11-05T03:43:21.500Z,0
2017-11-05T03:44:21.140Z,0
2017-11-05T03:45:21.452Z,0
2017-11-05T03:46:21.425Z,0
2017-11-05T03:47:21.391Z,0
2017-11-05T03:48:21.376Z,0
2017-11-05T03:49:21.354Z,0
2017-11-05T03:50:21.671Z,0
2017-11-05T03:51:21.298Z,0
2017-11-05T03:52:21.275Z,0
2017-11-05T03:53:21.250Z,0
2017-11-05T03:54:21.237Z,0
2017-11-05T03:55:21.216Z,0
2017-11-05T03:56:21.537Z,0
2017-11-05T03:57:21.179Z,0
2017-11-05T03:58:21.139Z,0
2017-11-05T03:59:20.788Z,0
2017-11-05T04:00:21.104Z,0
2017-11-05T04:01:20.747Z,0
2017-11-05T04:02:21.030Z,0
2017-11-05T04:03:21.019Z,0
2017-11-05T04:04:21.013Z,0
2017-11-05T04:05:20.977Z,0
2017-11-05T04:06:20.946Z,0
2017-11-05T04:07:20.929Z,0
2017-11-05T04:08:20.910Z,0
2017-11-05T04:09:20.879Z,0
2017-11-05T04:10:20.853Z,0
2017-11-05T04:11:20.826Z,0
2017-11-05T04:12:21.046Z,0
2017-11-05T04:13:20.785Z,0
2017-11-05T04:14:20.449Z,0
2017-11-05T04:15:20.748Z,0
2017-11-05T04:16:20.400Z,0
2017-11-05T04:17:20.733Z,0
2017-11-05T04:18:20.668Z,0
2017-11-05T04:19:20.636Z,0
2017-11-05T04:20:20.309Z,0
2017-11-05T04:21:20.286Z,0
2017-11-05T04:22:20.577Z,0
2017-11-05T04:23:20.224Z,0
2017-11-05T04:24:21.070Z,0
2017-11-05T04:25:20.503Z,0
2017-11-05T04:26:20.480Z,0
2017-11-05T04:27:20.142Z,0
2017-11-05T04:28:20.787Z,0
2017-11-05T04:29:20.408Z,0
2017-11-05T04:30:20.385Z,0
2017-11-05T04:31:20.371Z,0
2017-11-05T04:32:20.312Z,0
2017-11-05T04:33:20.325Z,0
2017-11-05T04:34:20.294Z,0
2017-11-05T04:35:20.297Z,0
2017-11-05T04:36:20.243Z,0
2017-11-05T04:37:20.574Z,0
2017-11-05T04:38:20.199Z,0
2017-11-05T04:39:19.870Z,0
2017-11-05T04:40:20.198Z,0
2017-11-05T04:41:20.133Z,0
2017-11-05T04:42:20.119Z,0
2017-11-05T04:43:20.085Z,0
2017-11-05T04:44:20.063Z,0
2017-11-05T04:45:20.051Z,0
2017-11-05T04:46:20.014Z,0
2017-11-05T04:47:19.994Z,0
2017-11-05T04:48:19.651Z,0
2017-11-05T04:49:19.961Z,0
2017-11-05T04:50:19.937Z,0
2017-11-05T04:51:19.590Z,0
2017-11-05T04:52:19.873Z,0
2017-11-05T04:53:19.859Z,0
2017-11-05T04:54:19.829Z,0
2017-11-05T04:55:19.488Z,0
2017-11-05T04:56:19.789Z,0
2017-11-05T04:57:19.771Z,0
2017-11-05T04:58:19.743Z,0
2017-11-05T04:59:19.715Z,0
2017-11-05T05:00:19.709Z,0
2017-11-05T05:01:19.664Z,0
2017-11-05T05:02:19.650Z,0
2017-11-05T05:03:19.304Z,0
2017-11-05T05:04:19.605Z,0
2017-11-05T05:05:19.249Z,0
2017-11-05T05:06:19.551Z,0
2017-11-05T05:07:19.550Z,0
2017-11-05T05:08:19.189Z,0
2017-11-05T05:09:19.483Z,0
2017-11-05T05:10:19.495Z,0
2017-11-05T05:11:19.437Z,0
2017-11-05T05:12:19.420Z,0
2017-11-05T05:13:19.384Z,0
2017-11-05T05:14:18.724Z,0
2017-11-05T05:15:19.353Z,0
2017-11-05T05:16:19.322Z,0
2017-11-05T05:17:19.319Z,0
2017-11-05T05:18:19.278Z,0
2017-11-05T05:19:18.923Z,0
2017-11-05T05:20:19.233Z,0
2017-11-05T05:21:19.211Z,0
2017-11-05T05:22:19.185Z,0
2017-11-05T05:23:19.190Z,0
2017-11-05T05:24:19.145Z,0
2017-11-05T05:25:19.107Z,0
2017-11-05T05:26:19.092Z,0
2017-11-05T05:27:18.743Z,0
2017-11-05T05:28:18.722Z,0
2017-11-05T05:29:18.707Z,0
2017-11-05T05:30:19.004Z,0
2017-11-05T05:31:18.640Z,0
2017-11-05T05:32:18.937Z,0
2017-11-05T05:33:18.924Z,0
2017-11-05T05:34:18.908Z,0
2017-11-05T05:35:18.560Z,0
2017-11-05T05:36:18.841Z,0
2017-11-05T05:37:18.837Z,0
2017-11-05T05:38:18.810Z,0
2017-11-05T05:39:18.774Z,0
2017-11-05T05:40:18.756Z,0
2017-11-05T05:41:18.734Z,0
2017-11-05T05:42:18.393Z,0
2017-11-05T05:43:18.361Z,0
2017-11-05T05:44:18.661Z,0
2017-11-05T05:45:18.637Z,0
2017-11-05T05:46:18.617Z,0
2017-11-05T05:47:18.589Z,0
2017-11-05T05:48:18.563Z,0
2017-11-05T05:49:18.548Z,0
2017-11-05T05:50:18.516Z,0
2017-11-05T05:51:18.506Z,0
2017-11-05T05:52:18.156Z,0
2017-11-05T05:53:18.135Z,0
2017-11-05T05:54:18.440Z,0
2017-11-05T05:55:18.081Z,0
2017-11-05T05:56:18.384Z,0
2017-11-05T05:57:18.364Z,0
2017-11-05T05:58:18.319Z,0
2017-11-05T05:59:18.000Z,0
2017-11-05T06:00:18.289Z,0
2017-11-05T06:01:18.272Z,0
2017-11-05T06:02:18.231Z,0
2017-11-05T06:03:18.222Z,0
2017-11-05T06:04:17.884Z,0
2017-11-05T06:05:18.181Z,0
2017-11-05T06:06:18.147Z,0
2017-11-05T06:07:18.154Z,0
2017-11-05T06:08:17.777Z,0
2017-11-05T06:09:18.105Z,0
2017-11-05T06:10:18.061Z,0
2017-11-05T06:11:17.707Z,0
2017-11-05T06:12:18.006Z,0
2017-11-05T06:13:17.662Z,0
2017-11-05T06:14:17.966Z,0
2017-11-05T06:15:17.612Z,0
2017-11-05T06:16:17.919Z,0
2017-11-05T06:17:18.234Z,0
2017-11-05T06:18:17.871Z,0
2017-11-05T06:19:17.852Z,0
2017-11-05T06:20:17.812Z,0
2017-11-05T06:21:17.487Z,0
2017-11-05T06:22:17.782Z,0
2017-11-05T06:23:17.749Z,0
2017-11-05T06:24:17.719Z,0
2017-11-05T06:25:17.700Z,0
2017-11-05T06:26:17.668Z,0
2017-11-05T06:27:17.681Z,0
2017-11-05T06:28:17.626Z,0
2017-11-05T06:29:17.291Z,0
2017-11-05T06:30:17.609Z,0
2017-11-05T06:31:17.562Z,0
2017-11-05T06:32:17.560Z,0
2017-11-05T06:33:17.536Z,0
2017-11-05T06:34:17.487Z,0
2017-11-05T06:35:17.149Z,0
2017-11-05T06:36:17.441Z,0
2017-11-05T06:37:17.424Z,0
2017-11-05T06:38:17.399Z,0
2017-11-05T06:39:17.381Z,0
2017-11-05T06:40:17.363Z,0
2017-11-05T06:41:17.320Z,0
2017-11-05T06:42:17.302Z,0
2017-11-05T06:43:17.198Z,0
2017-11-05T06:44:17.250Z,0
2017-11-05T06:45:17.236Z,5
2017-11-05T06:46:17.213Z,5
2017-11-05T06:47:16.852Z,5
2017-11-05T06:48:17.160Z,5
2017-11-05T06:49:17.151Z,5
2017-11-05T06:50:17.106Z,5
2017-11-05T06:51:17.086Z,5
2017-11-05T06:52:17.059Z,5
2017-11-05T06:53:17.043Z,5
2017-11-05T06:54:17.020Z,5
2017-11-05T06:55:17.198Z,5
2017-11-05T06:56:16.967Z,5
2017-11-05T06:57:16.940Z,10
2017-11-05T06:58:16.934Z,10
2017-11-05T06:59:16.262Z,10
2017-11-05T07:00:16.896Z,10
2017-11-05T07:01:16.871Z,10
2017-11-05T07:02:16.836Z,10
2017-11-05T07:03:16.321Z,10
2017-11-05T07:04:16.779Z,10
2017-11-05T07:05:16.740Z,10
2017-11-05T07:06:16.747Z,10
2017-11-05T07:07:16.821Z,10
2017-11-05T07:08:16.697Z,10
2017-11-05T07:09:16.722Z,15
2017-11-05T07:10:16.644Z,15
2017-11-05T07:11:16.606Z,15
2017-11-05T07:12:16.595Z,15
2017-11-05T07:13:16.584Z,15
2017-11-05T07:14:16.531Z,15
2017-11-05T07:15:16.194Z,20
2017-11-05T07:16:16.498Z,20
2017-11-05T07:17:16.461Z,20
2017-11-05T07:18:16.446Z,20
2017-11-05T07:19:16.416Z,15
2017-11-05T07:20:16.407Z,15
2017-11-05T07:21:16.384Z,10
2017-11-05T07:22:16.345Z,15
2017-11-05T07:23:16.343Z,15
2017-11-05T07:24:16.304Z,20
2017-11-05T07:25:16.275Z,15
2017-11-05T07:26:16.257Z,15
2017-11-05T07:27:16.235Z,15
2017-11-05T07:28:15.576Z,15
2017-11-05T07:29:15.871Z,20
2017-11-05T07:30:16.158Z,20
2017-11-05T07:31:15.818Z,15
2017-11-05T07:32:16.119Z,15
2017-11-05T07:33:16.096Z,20
2017-11-05T07:34:15.749Z,15
2017-11-05T07:35:15.719Z,15
2017-11-05T07:36:16.032Z,20
2017-11-05T07:37:15.999Z,30
2017-11-05T07:38:15.650Z,35
2017-11-05T07:39:15.632Z,40
2017-11-05T07:40:15.610Z,45
2017-11-05T07:41:15.916Z,45
2017-11-05T07:42:15.874Z,45
2017-11-05T07:43:15.858Z,50
2017-11-05T07:44:15.518Z,50
2017-11-05T07:45:15.819Z,50
2017-11-05T07:46:15.794Z,45
2017-11-05T07:47:16.121Z,40
2017-11-05T07:48:15.743Z,40
2017-11-05T07:49:15.711Z,35
2017-11-05T07:50:15.689Z,30
2017-11-05T07:51:15.691Z,35
2017-11-05T07:52:15.642Z,35
2017-11-05T07:53:15.622Z,35
2017-11-05T07:54:15.612Z,45
2017-11-05T07:55:15.250Z,45
2017-11-05T07:56:15.549Z,55
2017-11-05T07:57:15.537Z,60
2017-11-05T07:58:15.175Z,65
2017-11-05T07:59:15.472Z,70
2017-11-05T08:00:15.465Z,70
2017-11-05T08:01:15.144Z,65
2017-11-05T08:02:15.449Z,60
2017-11-05T08:03:15.058Z,60
2017-11-05T08:04:15.356Z,65
2017-11-05T08:05:15.353Z,70
2017-11-05T08:06:15.308Z,70
2017-11-05T08:07:15.301Z,75
2017-11-05T08:08:15.269Z,75
2017-11-05T08:09:14.912Z,75
2017-11-05T08:10:14.898Z,75
2017-11-05T08:11:14.875Z,75
2017-11-05T08:12:14.854Z,75
2017-11-05T08:13:14.824Z,80
2017-11-05T08:14:15.126Z,80
2017-11-05T08:15:14.772Z,85
2017-11-05T08:16:15.078Z,90
2017-11-05T08:17:15.053Z,90
2017-11-05T08:18:15.025Z,90
2017-11-05T08:19:15.027Z,95
2017-11-05T08:20:14.988Z,95
2017-11-05T08:21:14.953Z,95
2017-11-05T08:22:14.655Z,95
2017-11-05T08:23:14.902Z,100
2017-11-05T08:24:14.574Z,105
2017-11-05T08:25:14.867Z,110
2017-11-05T08:26:14.837Z,110
2017-11-05T08:27:14.804Z,115
2017-11-05T08:28:14.782Z,115
2017-11-05T08:29:14.752Z,115
2017-11-05T08:30:14.410Z,115
2017-11-05T08:31:14.743Z,115
2017-11-05T08:32:14.369Z,105
2017-11-05T08:33:14.376Z,100
2017-11-05T08:34:14.650Z,90
2017-11-05T08:35:14.612Z,85
2017-11-05T08:36:14.605Z,80
2017-11-05T08:37:14.251Z,75
2017-11-05T08:38:14.543Z,75
2017-11-05T08:39:14.532Z,75
2017-11-05T08:40:14.521Z,70
2017-11-05T08:41:14.487Z,65
2017-11-05T08:42:14.441Z,60
2017-11-05T08:43:14.434Z,55
2017-11-05T08:44:14.390Z,60
2017-11-05T08:45:14.374Z,60
2017-11-05T08:46:14.355Z,65
2017-11-05T08:47:14.336Z,65
2017-11-05T08:48:14.319Z,65
2017-11-05T08:49:14.284Z,70
2017-11-05T08:50:14.260Z,70
2017-11-05T08:51:14.259Z,70
2017-11-05T08:52:14.207Z,75
2017-11-05T08:53:14.198Z,75
2017-11-05T08:54:14.165Z,80
2017-11-05T08:55:13.810Z,85
2017-11-05T08:56:13.789Z,90
2017-11-05T08:57:14.092Z,100
2017-11-05T08:58:14.073Z,110
2017-11-05T08:59:14.044Z,125
2017-11-05T09:00:14.028Z,130
2017-11-05T09:01:14.023Z,130
2017-11-05T09:02:13.649Z,125
2017-11-05T09:03:13.626Z,115
2017-11-05T09:04:13.929Z,110
2017-11-05T09:05:13.583Z,105
2017-11-05T09:06:13.545Z,105
2017-11-05T09:07:13.857Z,110
2017-11-05T09:08:13.823Z,115
2017-11-05T09:09:13.177Z,120
2017-11-05T09:10:13.778Z,125
2017-11-05T09:11:13.751Z,125
2017-11-05T09:12:13.727Z,130
2017-11-05T09:13:13.398Z,130
2017-11-05T09:14:13.687Z,130
2017-11-05T09:15:13.658Z,130
2017-11-05T09:16:13.637Z,135
2017-11-05T09:17:13.613Z,135
2017-11-05T09:18:13.580Z,135
2017-11-05T09:19:13.249Z,130
2017-11-05T09:20:13.226Z,135
2017-11-05T09:21:13.523Z,135
2017-11-05T09:22:13.233Z,135
2017-11-05T09:23:13.465Z,135
2017-11-05T09:24:13.123Z,140
2017-11-05T09:25:13.109Z,150
2017-11-05T09:26:13.625Z,155
2017-11-05T09:27:13.063Z,155
2017-11-05T09:28:13.378Z,160
2017-11-05T09:29:13.343Z,160
2017-11-05T09:30:13.305Z,145
2017-11-05T09:31:13.274Z,130
2017-11-05T09:32:13.281Z,110
2017-11-05T09:33:13.224Z,95
2017-11-05T09:34:13.250Z,90
2017-11-05T09:35:13.543Z,80
2017-11-05T09:36:12.838Z,80
2017-11-05T09:37:13.133Z,85
2017-11-05T09:38:13.653Z,85
2017-11-05T09:39:13.103Z,85
2017-11-05T09:40:13.091Z,85
2017-11-05T09:41:13.046Z,85
2017-11-05T09:42:12.374Z,90
2017-11-05T09:43:12.988Z,90
2017-11-05T09:44:12.656Z,100
2017-11-05T09:45:12.640Z,105
2017-11-05T09:46:12.862Z,105
2017-11-05T09:47:12.912Z,105
2017-11-05T09:48:12.876Z,100
2017-11-05T09:49:12.862Z,95
2017-11-05T09:50:12.850Z,90
2017-11-05T09:51:12.803Z,85
2017-11-05T09:52:12.466Z,80
2017-11-05T09:53:12.768Z,80
2017-11-05T09:54:12.754Z,80
2017-11-05T09:55:12.930Z,80
2017-11-05T09:56:12.372Z,85
2017-11-05T09:57:12.348Z,85
2017-11-05T09:58:12.653Z,85
2017-11-05T09:59:12.639Z,85
2017-11-05T10:00:12.593Z,85
2017-11-05T10:01:12.564Z,80
2017-11-05T10:02:12.572Z,80
2017-11-05T10:03:12.204Z,80
2017-11-05T10:04:12.192Z,85
2017-11-05T10:05:12.149Z,90
2017-11-05T10:06:11.814Z,95
2017-11-05T10:07:12.433Z,100
2017-11-05T10:08:11.765Z,105
2017-11-05T10:09:12.405Z,105
2017-11-05T10:10:12.372Z,110
2017-11-05T10:11:12.009Z,110
2017-11-05T10:12:12.317Z,110
2017-11-05T10:13:12.289Z,115
2017-11-05T10:14:12.285Z,120
2017-11-05T10:15:12.260Z,120
2017-11-05T10:16:11.914Z,120
2017-11-05T10:17:12.234Z,120
2017-11-05T10:18:11.870Z,120
2017-11-05T10:19:11.839Z,125
2017-11-05T10:20:11.811Z,120
2017-11-05T10:21:12.139Z,120
2017-11-05T10:22:11.763Z,115
2017-11-05T10:23:11.733Z,110
2017-11-05T10:24:11.710Z,105
2017-11-05T10:25:11.685Z,100
2017-11-05T10:26:11.675Z,85
2017-11-05T10:27:11.957Z,80
2017-11-05T10:28:11.626Z,85
2017-11-05T10:29:11.930Z,105
2017-11-05T10:30:11.581Z,120
2017-11-05T10:31:11.546Z,135
2017-11-05T10:32:11.518Z,145
2017-11-05T10:33:11.808Z,150
2017-11-05T10:34:11.474Z,155
2017-11-05T10:35:11.772Z,160
2017-11-05T10:36:11.426Z,160
2017-11-05T10:37:11.408Z,160
2017-11-05T10:38:11.734Z,160
2017-11-05T10:39:11.353Z,155
2017-11-05T10:40:11.658Z,160
2017-11-05T10:41:11.338Z,170
2017-11-05T10:42:11.602Z,180
2017-11-05T10:43:11.588Z,190
2017-11-05T10:44:11.573Z,195
2017-11-05T10:45:11.530Z,205
2017-11-05T10:46:11.542Z,215
2017-11-05T10:47:11.178Z,225
2017-11-05T10:48:11.457Z,225
2017-11-05T10:49:11.482Z,225
2017-11-05T10:50:11.417Z,235
2017-11-05T10:51:11.069Z,235
2017-11-05T10:52:11.364Z,235
2017-11-05T10:53:11.033Z,230
2017-11-05T10:54:10.697Z,220
2017-11-05T10:55:11.299Z,215
2017-11-05T10:56:10.967Z,210
2017-11-05T10:57:10.948Z,215
2017-11-05T10:58:11.246Z,220
2017-11-05T10:59:10.885Z,225
2017-11-05T11:00:10.862Z,240
2017-11-05T11:01:10.835Z,255
2017-11-05T11:02:11.134Z,260
2017-11-05T11:03:10.799Z,255
2017-11-05T11:04:11.091Z,250
2017-11-05T11:05:11.076Z,245
2017-11-05T11:06:11.046Z,250
2017-11-05T11:07:11.033Z,255
2017-11-05T11:08:10.989Z,255
2017-11-05T11:09:10.978Z,255
2017-11-05T11:10:10.948Z,250
2017-11-05T11:11:10.611Z,250
2017-11-05T11:12:10.915Z,245
2017-11-05T11:13:10.250Z,235
2017-11-05T11:14:10.203Z,230
2017-11-05T11:15:10.840Z,230
2017-11-05T11:16:10.803Z,235
2017-11-05T11:17:10.460Z,240
2017-11-05T11:18:10.761Z,240
2017-11-05T11:19:10.766Z,240
2017-11-05T11:20:10.399Z,235
2017-11-05T11:21:10.714Z,235
2017-11-05T11:22:10.667Z,240
2017-11-05T11:23:11.014Z,245
2017-11-05T11:24:10.981Z,250
2017-11-05T11:25:10.601Z,250
2017-11-05T11:26:10.812Z,240
2017-11-05T11:27:10.559Z,235
2017-11-05T11:28:10.534Z,225
2017-11-05T11:29:10.193Z,225
2017-11-05T11:30:10.477Z,225
2017-11-05T11:31:10.137Z,230
2017-11-05T11:32:10.457Z,230
2017-11-05T11:33:10.421Z,230
2017-11-05T11:34:10.434Z,235
2017-11-05T11:35:10.375Z,235
2017-11-05T11:36:10.355Z,230
2017-11-05T11:37:10.019Z,225
2017-11-05T11:38:09.673Z,220
2017-11-05T11:39:10.291Z,215
2017-11-05T11:40:10.253Z,220
2017-11-05T11:41:10.227Z,210
2017-11-05T11:42:10.209Z,205
2017-11-05T11:43:09.551Z,205
2017-11-05T11:44:09.851Z,205
2017-11-05T11:45:10.139Z,210
2017-11-05T11:46:09.472Z,210
2017-11-05T11:47:10.107Z,215
2017-11-05T11:48:09.751Z,215
2017-11-05T11:49:09.730Z,215
2017-11-05T11:50:10.023Z,215
2017-11-05T11:51:09.991Z,215
2017-11-05T11:52:09.984Z,220
2017-11-05T11:53:09.960Z,225
2017-11-05T11:54:09.941Z,225
2017-11-05T11:55:09.913Z,230
2017-11-05T11:56:09.885Z,235
2017-11-05T11:57:09.872Z,235
2017-11-05T11:58:09.845Z,235
2017-11-05T11:59:09.832Z,235
2017-11-05T12:00:09.798Z,230
2017-11-05T12:01:09.771Z,230
2017-11-05T12:02:09.751Z,220
2017-11-05T12:03:09.743Z,220
2017-11-05T12:04:09.693Z,220
2017-11-05T12:05:09.513Z,225
2017-11-05T12:06:09.668Z,220
2017-11-05T12:07:09.317Z,220
2017-11-05T12:08:09.292Z,220
2017-11-05T12:09:09.397Z,220
2017-11-05T12:10:09.573Z,215
2017-11-05T12:11:09.536Z,215
2017-11-05T12:12:09.206Z,220
2017-11-05T12:13:09.187Z,225
2017-11-05T12:14:09.469Z,220
2017-11-05T12:15:09.454Z,215
2017-11-05T12:16:09.464Z,215
2017-11-05T12:17:09.154Z,215
2017-11-05T12:18:09.434Z,210
2017-11-05T12:19:09.053Z,205
2017-11-05T12:20:09.325Z,200
2017-11-05T12:21:09.005Z,200
2017-11-05T12:22:08.967Z,215
2017-11-05T12:23:09.276Z,220
2017-11-05T12:24:08.926Z,210
2017-11-05T12:25:08.600Z,205
2017-11-05T12:26:09.211Z,210
2017-11-05T12:27:08.869Z,215
2017-11-05T12:28:09.165Z,225
2017-11-05T12:29:08.514Z,230
2017-11-05T12:30:09.126Z,230
2017-11-05T12:31:08.455Z,225
2017-11-05T12:32:09.058Z,215
2017-11-05T12:33:08.727Z,215
2017-11-05T12:34:09.017Z,220
2017-11-05T12:35:08.993Z,220
2017-11-05T12:36:09.004Z,215
2017-11-05T12:37:08.979Z,205
2017-11-05T12:38:08.929Z,200
2017-11-05T12:39:08.912Z,195
2017-11-05T12:40:08.881Z,190
2017-11-05T12:41:08.850Z,190
2017-11-05T12:42:08.571Z,195
2017-11-05T12:43:08.809Z,200
2017-11-05T12:44:08.799Z,200
2017-11-05T12:45:08.435Z,205
2017-11-05T12:46:08.745Z,200
2017-11-05T12:47:08.714Z,195
2017-11-05T12:48:08.697Z,195
2017-11-05T12:49:08.684Z,195
2017-11-05T12:50:08.651Z,195
2017-11-05T12:51:08.330Z,200
2017-11-05T12:52:08.596Z,200
2017-11-05T12:53:08.575Z,200
2017-11-05T12:54:08.254Z,195
2017-11-05T12:55:08.548Z,200
2017-11-05T12:56:08.220Z,195
2017-11-05T12:57:08.486Z,195
2017-11-05T12:58:08.156Z,190
2017-11-05T12:59:08.445Z,190
2017-11-05T13:00:08.459Z,195
2017-11-05T13:01:08.085Z,200
2017-11-05T13:02:08.382Z,195
2017-11-05T13:03:08.351Z,195
2017-11-05T13:04:08.004Z,190
2017-11-05T13:05:07.666Z,185
2017-11-05T13:06:07.959Z,180
2017-11-05T13:07:08.258Z,175
2017-11-05T13:08:08.246Z,180
2017-11-05T13:09:08.216Z,180
2017-11-05T13:10:08.204Z,185
2017-11-05T13:11:08.176Z,185
2017-11-05T13:12:07.816Z,180
2017-11-05T13:13:08.127Z,170
2017-11-05T13:14:08.092Z,160
2017-11-05T13:15:08.078Z,155
2017-11-05T13:16:08.037Z,150
2017-11-05T13:17:07.702Z,140
2017-11-05T13:18:08.012Z,135
2017-11-05T13:19:07.985Z,120
2017-11-05T13:20:07.972Z,115
2017-11-05T13:21:07.931Z,115
2017-11-05T13:22:07.909Z,120
2017-11-05T13:23:07.934Z,125
2017-11-05T13:24:07.543Z,130
2017-11-05T13:25:07.839Z,135
2017-11-05T13:26:07.823Z,135
2017-11-05T13:27:07.801Z,150
2017-11-05T13:28:07.781Z,135
2017-11-05T13:29:07.178Z,105
2017-11-05T13:30:07.722Z,75
2017-11-05T13:31:07.698Z,55
2017-11-05T13:32:07.696Z,55
2017-11-05T13:33:07.394Z,55
2017-11-05T13:34:07.665Z,50
2017-11-05T13:35:07.299Z,50
2017-11-05T13:36:07.610Z,45
2017-11-05T13:37:07.253Z,40
2017-11-05T13:38:07.552Z,35
2017-11-05T13:39:07.544Z,35
2017-11-05T13:40:07.188Z,30
2017-11-05T13:41:07.466Z,35
2017-11-05T13:42:07.477Z,40
2017-11-05T13:43:06.799Z,50
2017-11-05T13:44:07.088Z,65
2017-11-05T13:45:07.062Z,80
2017-11-05T13:46:07.042Z,75
2017-11-05T13:47:07.340Z,60
2017-11-05T13:48:07.308Z,50
2017-11-05T13:49:07.287Z,45
2017-11-05T13:50:06.975Z,50
2017-11-05T13:51:07.252Z,50
2017-11-05T13:52:06.907Z,50
2017-11-05T13:53:06.890Z,65
2017-11-05T13:54:07.182Z,85
2017-11-05T13:55:07.151Z,100
2017-11-05T13:56:06.809Z,105
2017-11-05T13:57:07.101Z,110
2017-11-05T13:58:07.091Z,115
2017-11-05T13:59:07.064Z,120
2017-11-05T14:00:07.032Z,125
2017-11-05T14:01:07.016Z,130
2017-11-05T14:02:07.002Z,130
2017-11-05T14:03:06.336Z,135
2017-11-05T14:04:06.939Z,135
2017-11-05T14:05:06.953Z,135
2017-11-05T14:06:06.614Z,130
2017-11-05T14:07:06.579Z,130
2017-11-05T14:08:06.850Z,130
2017-11-05T14:09:06.830Z,135
2017-11-05T14:10:06.825Z,135
2017-11-05T14:11:06.781Z,130
2017-11-05T14:12:06.760Z,130
2017-11-05T14:13:06.725Z,125
2017-11-05T14:14:06.719Z,125
2017-11-05T14:15:06.709Z,120
2017-11-05T14:16:07.025Z,120
2017-11-05T14:17:06.320Z,115
2017-11-05T14:18:06.620Z,115
2017-11-05T14:19:05.635Z,115
2017-11-05T14:20:06.261Z,115